createdAt,value
2018-12-26T00:00:16.027Z,7.20
2018-12-26T00:03:19.193Z,5.93
2018-12-26T00:06:21.161Z,6.43
2018-12-26T00:09:24.163Z,7.13
2018-12-26T00:12:26.177Z,6.30
2018-12-26T00:15:28.128Z,6.97
2018-12-26T00:18:30.072Z,7.03
2018-12-26T00:21:32.092Z,5.80
2018-12-26T00:24:34.112Z,6.70
2018-12-26T00:27:36.065Z,6.70
2018-12-26T00:30:38.123Z,5.77
2018-12-26T00:33:40.011Z,6.70
2018-12-26T00:36:41.953Z,6.87
2018-12-26T00:39:43.887Z,7.43
2018-12-26T00:42:45.824Z,6.40
2018-12-26T00:45:47.807Z,7.00
2018-12-26T00:48:49.896Z,6.30
2018-12-26T00:51:51.893Z,6.50
2018-12-26T00:54:53.935Z,6.43
2018-12-26T00:57:55.943Z,7.07
2018-12-26T01:00:58.013Z,7.27
2018-12-26T01:04:00.078Z,8.70
2018-12-26T01:07:02.016Z,6.70
2018-12-26T01:10:04.588Z,7.97
2018-12-26T01:13:06.564Z,6.57
2018-12-26T01:16:08.525Z,7.07
2018-12-26T01:19:10.483Z,6.37
2018-12-26T01:22:12.578Z,7.63
2018-12-26T01:25:14.627Z,7.37
2018-12-26T01:28:16.538Z,6.40
2018-12-26T01:31:18.492Z,6.10
2018-12-26T01:34:20.563Z,6.13
2018-12-26T01:37:22.512Z,5.90
2018-12-26T01:40:24.462Z,6.20
2018-12-26T01:43:26.531Z,6.33
2018-12-26T01:46:28.541Z,5.87
2018-12-26T01:49:30.649Z,6.37
2018-12-26T01:52:32.610Z,5.80
2018-12-26T01:55:34.633Z,5.97
2018-12-26T01:58:36.637Z,5.40
2018-12-26T02:01:38.607Z,6.23
2018-12-26T02:04:40.580Z,6.53
2018-12-26T02:07:42.628Z,6.43
2018-12-26T02:10:44.577Z,6.50
2018-12-26T02:13:46.564Z,5.43
2018-12-26T02:16:49.618Z,5.93
2018-12-26T02:19:51.754Z,5.90
2018-12-26T02:22:53.705Z,6.23
2018-12-26T02:25:55.762Z,6.53
2018-12-26T02:28:57.648Z,6.37
2018-12-26T02:31:59.701Z,6.23
2018-12-26T02:35:01.642Z,5.83
2018-12-26T02:38:03.595Z,5.90
2018-12-26T02:41:06.101Z,7.27
2018-12-26T02:44:08.058Z,6.77
2018-12-26T02:47:10.114Z,6.87
2018-12-26T02:50:12.028Z,7.70
2018-12-26T02:53:13.999Z,7.90
2018-12-26T02:56:17.221Z,7.37
2018-12-26T02:59:19.176Z,7.57
2018-12-26T03:02:21.146Z,7.47
2018-12-26T03:05:24.135Z,9.13
2018-12-26T03:08:26.078Z,8.47
2018-12-26T03:11:28.147Z,9.00
2018-12-26T03:14:30.122Z,9.43
2018-12-26T03:17:33.925Z,9.17
2018-12-26T03:20:35.891Z,8.30
2018-12-26T03:23:37.962Z,9.23
2018-12-26T03:26:39.987Z,8.03
2018-12-26T03:29:42.006Z,8.97
2018-12-26T03:32:44.026Z,8.97
2018-12-26T03:35:46.420Z,9.70
2018-12-26T03:38:48.417Z,9.37
2018-12-26T03:41:50.472Z,9.17
2018-12-26T03:44:52.519Z,9.50
2018-12-26T03:47:54.602Z,10.20
2018-12-26T03:50:56.579Z,10.30
2018-12-26T03:53:58.555Z,9.70
2018-12-26T03:57:06.018Z,9.97
2018-12-26T04:00:06.804Z,9.60
2018-12-26T04:03:08.805Z,10.30
2018-12-26T04:06:10.876Z,10.77
2018-12-26T04:09:12.961Z,11.13
2018-12-26T04:12:15.079Z,10.40
2018-12-26T04:15:17.028Z,10.30
2018-12-26T04:18:19.239Z,11.17
2018-12-26T04:21:21.124Z,10.07
2018-12-26T04:24:23.241Z,11.83
2018-12-26T04:27:25.182Z,10.57
2018-12-26T04:30:27.126Z,11.07
2018-12-26T04:33:29.104Z,11.07
2018-12-26T04:36:31.089Z,11.37
2018-12-26T04:39:33.038Z,11.67
2018-12-26T04:42:34.955Z,11.43
2018-12-26T04:45:36.954Z,10.90
2018-12-26T04:48:39.047Z,11.47
2018-12-26T04:51:41.060Z,11.47
2018-12-26T04:54:42.954Z,11.60
2018-12-26T04:57:44.997Z,12.23
2018-12-26T05:00:46.895Z,11.27
2018-12-26T05:03:48.951Z,12.00
2018-12-26T05:06:51.033Z,12.10
2018-12-26T05:09:53.086Z,12.00
2018-12-26T05:12:55.108Z,11.03
2018-12-26T05:15:57.038Z,11.80
2018-12-26T05:18:59.059Z,11.27
2018-12-26T05:22:01.373Z,11.60
2018-12-26T05:25:04.098Z,12.60
2018-12-26T05:28:06.059Z,11.80
2018-12-26T05:31:07.974Z,11.83
2018-12-26T05:34:09.965Z,13.07
2018-12-26T05:37:11.917Z,11.87
2018-12-26T05:40:13.895Z,13.00
2018-12-26T05:43:15.845Z,13.50
2018-12-26T05:46:17.824Z,12.97
2018-12-26T05:49:19.848Z,13.83
2018-12-26T05:52:21.804Z,11.80
2018-12-26T05:55:23.792Z,13.17
2018-12-26T05:58:25.745Z,13.63
2018-12-26T06:01:27.650Z,13.77
2018-12-26T06:04:29.619Z,13.50
2018-12-26T06:07:31.663Z,13.33
2018-12-26T06:10:33.615Z,13.80
2018-12-26T06:13:35.553Z,13.13
2018-12-26T06:16:37.494Z,12.50
2018-12-26T06:19:39.560Z,12.73
2018-12-26T06:22:41.536Z,13.87
2018-12-26T06:25:43.442Z,12.30
2018-12-26T06:28:45.394Z,14.57
2018-12-26T06:31:47.301Z,15.50
2018-12-26T06:34:49.257Z,14.30
2018-12-26T06:37:51.217Z,15.10
2018-12-26T06:40:53.129Z,14.20
2018-12-26T06:43:55.075Z,14.57
2018-12-26T06:46:57.042Z,14.33
2018-12-26T06:49:59.056Z,15.87
2018-12-26T06:53:02.055Z,15.00
2018-12-26T06:56:04.063Z,14.60
2018-12-26T06:59:06.020Z,15.03
2018-12-26T07:02:08.022Z,13.90
2018-12-26T07:05:09.970Z,15.87
2018-12-26T07:08:12.110Z,14.50
2018-12-26T07:11:14.056Z,14.60
2018-12-26T07:14:16.008Z,14.00
2018-12-26T07:17:18.105Z,13.90
2018-12-26T07:20:20.160Z,13.70
2018-12-26T07:23:22.132Z,15.03
2018-12-26T07:26:24.068Z,14.17
2018-12-26T07:29:26.026Z,14.80
2018-12-26T07:32:28.070Z,14.90
2018-12-26T07:35:30.149Z,15.47
2018-12-26T07:38:32.159Z,15.37
2018-12-26T07:41:34.132Z,15.07
2018-12-26T07:44:36.023Z,17.00
2018-12-26T07:47:38.115Z,15.70
2018-12-26T07:50:40.204Z,14.90
2018-12-26T07:53:42.183Z,15.63
2018-12-26T07:56:44.168Z,15.43
2018-12-26T07:59:46.215Z,17.83
2018-12-26T08:02:48.151Z,16.37
2018-12-26T08:05:50.125Z,16.93
2018-12-26T08:08:52.082Z,15.90
2018-12-26T08:11:54.021Z,17.20
2018-12-26T08:14:55.992Z,16.63
2018-12-26T08:17:57.947Z,17.17
2018-12-26T08:21:00.163Z,16.73
2018-12-26T08:24:02.133Z,16.20
2018-12-26T08:27:04.173Z,17.93
2018-12-26T08:30:06.121Z,18.57
2018-12-26T08:33:08.085Z,19.80
2018-12-26T08:36:10.026Z,17.23
2018-12-26T08:39:12.054Z,17.77
2018-12-26T08:42:14.015Z,19.40
2018-12-26T08:45:16.053Z,19.47
2018-12-26T08:48:19.070Z,17.30
2018-12-26T08:51:21.115Z,17.53
2018-12-26T08:54:23.096Z,19.07
2018-12-26T08:57:25.100Z,19.17
2018-12-26T09:00:26.986Z,17.33
2018-12-26T09:03:29.004Z,17.20
2018-12-26T09:06:30.929Z,18.27
2018-12-26T09:09:32.921Z,17.80
2018-12-26T09:12:34.831Z,16.83
2018-12-26T09:15:36.839Z,18.23
2018-12-26T09:18:38.895Z,17.30
2018-12-26T09:21:41.202Z,17.20
2018-12-26T09:24:43.156Z,18.17
2018-12-26T09:27:45.201Z,16.90
2018-12-26T09:30:47.127Z,17.67
2018-12-26T09:33:49.111Z,17.80
2018-12-26T09:36:51.135Z,17.77
2018-12-26T09:39:53.208Z,17.70
2018-12-26T09:42:55.139Z,18.77
2018-12-26T09:45:57.101Z,17.27
2018-12-26T09:48:59.023Z,17.20
2018-12-26T09:52:01.196Z,17.47
2018-12-26T09:55:03.971Z,16.97
2018-12-26T09:58:06.075Z,16.57
2018-12-26T10:01:07.991Z,18.60
2018-12-26T10:04:09.953Z,17.30
2018-12-26T10:07:11.946Z,16.73
2018-12-26T10:10:14.025Z,16.93
2018-12-26T10:13:16.030Z,16.60
2018-12-26T10:16:18.086Z,17.30
2018-12-26T10:19:20.083Z,15.17
2018-12-26T10:22:22.192Z,18.40
2018-12-26T10:25:24.125Z,18.47
2018-12-26T10:28:26.131Z,18.93
2018-12-26T10:31:28.066Z,18.87
2018-12-26T10:34:30.018Z,17.93
2018-12-26T10:37:32.120Z,18.50
2018-12-26T10:40:34.264Z,19.60
2018-12-26T10:43:36.176Z,19.80
2018-12-26T10:46:38.258Z,17.30
2018-12-26T10:49:40.209Z,18.13
2018-12-26T10:52:42.308Z,19.23
2018-12-26T10:55:44.344Z,19.23
2018-12-26T10:58:46.326Z,18.03
2018-12-26T11:01:48.282Z,19.47
2018-12-26T11:04:50.287Z,19.23
2018-12-26T11:07:52.277Z,20.70
2018-12-26T11:10:54.376Z,18.83
2018-12-26T11:13:56.314Z,19.67
2018-12-26T11:16:58.324Z,19.13
2018-12-26T11:20:00.313Z,18.67
2018-12-26T11:23:02.565Z,20.33
2018-12-26T11:26:04.540Z,20.47
2018-12-26T11:29:06.471Z,20.33
2018-12-26T11:32:08.444Z,17.10
2018-12-26T11:35:10.436Z,18.67
2018-12-26T11:38:12.471Z,18.47
2018-12-26T11:41:14.505Z,19.37
2018-12-26T11:44:16.524Z,18.87
2018-12-26T11:47:18.530Z,21.00
2018-12-26T11:50:20.571Z,17.57
2018-12-26T11:53:22.591Z,20.90
2018-12-26T11:56:24.572Z,20.27
2018-12-26T11:59:27.371Z,21.23
2018-12-26T12:02:29.747Z,18.80
2018-12-26T12:05:31.687Z,19.43
2018-12-26T12:08:33.858Z,18.90
2018-12-26T12:11:35.785Z,17.27
2018-12-26T12:14:37.780Z,19.10
2018-12-26T12:17:39.745Z,16.83
2018-12-26T12:20:41.755Z,18.47
2018-12-26T12:23:44.155Z,18.00
2018-12-26T12:26:46.502Z,17.43
2018-12-26T12:29:48.476Z,17.87
2018-12-26T12:32:50.523Z,17.70
2018-12-26T12:35:52.896Z,18.37
2018-12-26T12:38:54.856Z,19.53
2018-12-26T12:41:56.763Z,16.93
2018-12-26T12:44:58.716Z,18.43
2018-12-26T12:48:00.654Z,18.50
2018-12-26T12:51:02.573Z,16.50
2018-12-26T12:54:04.621Z,17.23
2018-12-26T12:57:06.570Z,18.03
2018-12-26T13:00:08.610Z,16.97
2018-12-26T13:03:10.862Z,17.87
2018-12-26T13:06:12.929Z,16.63
2018-12-26T13:09:14.936Z,17.53
2018-12-26T13:12:16.945Z,18.53
2018-12-26T13:15:18.945Z,18.73
2018-12-26T13:18:21.945Z,18.70
2018-12-26T13:21:23.928Z,19.20
2018-12-26T13:24:27.082Z,19.53
2018-12-26T13:27:29.042Z,18.43
2018-12-26T13:30:31.050Z,17.37
2018-12-26T13:33:32.970Z,18.13
2018-12-26T13:36:34.961Z,20.00
2018-12-26T13:39:36.984Z,20.63
2018-12-26T13:42:39.069Z,17.37
2018-12-26T13:45:41.155Z,18.67
2018-12-26T13:48:43.127Z,17.87
2018-12-26T13:51:45.163Z,18.83
2018-12-26T13:54:47.151Z,16.57
2018-12-26T13:57:49.054Z,17.50
2018-12-26T14:00:51.036Z,18.23
2018-12-26T14:03:53.002Z,18.00
2018-12-26T14:06:55.054Z,17.87
2018-12-26T14:09:57.027Z,18.80
2018-12-26T14:12:58.921Z,17.23
2018-12-26T14:16:00.874Z,18.50
2018-12-26T14:19:02.809Z,23.07
2018-12-26T14:22:04.833Z,24.37
2018-12-26T14:25:07.280Z,39.90
2018-12-26T14:28:09.351Z,36.67
2018-12-26T14:31:11.323Z,41.40
2018-12-26T14:34:13.383Z,21.83
2018-12-26T14:37:15.389Z,19.80
2018-12-26T14:40:17.415Z,17.20
2018-12-26T14:43:19.388Z,18.70
2018-12-26T14:46:21.348Z,20.13
2018-12-26T14:49:23.318Z,18.27
2018-12-26T14:52:25.445Z,20.50
2018-12-26T14:55:27.458Z,16.07
2018-12-26T14:58:29.383Z,17.30
2018-12-26T15:01:31.404Z,16.17
2018-12-26T15:04:33.372Z,20.37
2018-12-26T15:07:35.374Z,19.03
2018-12-26T15:10:37.320Z,21.47
2018-12-26T15:13:39.329Z,20.40
2018-12-26T15:16:41.253Z,17.00
2018-12-26T15:19:43.219Z,23.87
2018-12-26T15:22:45.188Z,24.70
2018-12-26T15:25:47.437Z,20.67
2018-12-26T15:28:49.363Z,20.77
2018-12-26T15:31:51.409Z,18.80
2018-12-26T15:34:53.667Z,16.70
2018-12-26T15:37:55.650Z,19.00
2018-12-26T15:40:57.696Z,15.63
2018-12-26T15:43:59.719Z,16.63
2018-12-26T15:47:01.745Z,14.87
2018-12-26T15:50:04.210Z,15.90
2018-12-26T15:53:06.260Z,18.33
2018-12-26T15:56:08.333Z,15.00
2018-12-26T15:59:10.368Z,13.13
2018-12-26T16:02:12.336Z,14.70
2018-12-26T16:05:14.393Z,15.60
2018-12-26T16:08:16.307Z,15.80
2018-12-26T16:11:18.384Z,16.90
2018-12-26T16:14:20.342Z,15.97
2018-12-26T16:17:22.383Z,16.03
2018-12-26T16:20:24.430Z,13.60
2018-12-26T16:23:27.411Z,13.73
2018-12-26T16:26:29.705Z,14.40
2018-12-26T16:29:31.850Z,12.60
2018-12-26T16:32:33.730Z,13.83
2018-12-26T16:35:35.739Z,13.27
2018-12-26T16:38:37.707Z,13.97
2018-12-26T16:41:39.692Z,13.97
2018-12-26T16:44:41.644Z,13.33
2018-12-26T16:47:43.684Z,12.87
2018-12-26T16:50:45.671Z,13.33
2018-12-26T16:53:47.658Z,12.60
2018-12-26T16:56:49.624Z,12.90
2018-12-26T16:59:51.623Z,13.17
2018-12-26T17:02:53.585Z,13.10
2018-12-26T17:05:55.556Z,12.10
2018-12-26T17:08:57.590Z,12.53
2018-12-26T17:11:59.548Z,12.60
2018-12-26T17:15:01.588Z,12.20
2018-12-26T17:18:03.548Z,13.37
2018-12-26T17:21:05.528Z,12.87
2018-12-26T17:24:16.302Z,11.90
2018-12-26T17:27:11.638Z,12.97
2018-12-26T17:30:13.624Z,12.37
2018-12-26T17:33:15.560Z,12.33
2018-12-26T17:36:17.554Z,12.00
2018-12-26T17:39:19.596Z,12.07
2018-12-26T17:42:21.617Z,12.97
2018-12-26T17:45:23.503Z,13.00
2018-12-26T17:48:26.519Z,13.57
2018-12-26T17:51:28.446Z,13.23
2018-12-26T17:54:31.571Z,12.53
2018-12-26T17:57:33.549Z,13.17
2018-12-26T18:00:36.100Z,12.23
2018-12-26T18:03:38.571Z,12.90
2018-12-26T18:06:41.822Z,12.00
2018-12-26T18:09:44.540Z,13.00
2018-12-26T18:12:47.242Z,13.70
2018-12-26T18:15:50.567Z,12.73
2018-12-26T18:18:54.591Z,12.87
2018-12-26T18:21:58.254Z,13.80
2018-12-26T18:25:00.898Z,13.50
2018-12-26T18:28:02.868Z,13.97
2018-12-26T18:31:05.174Z,12.60
2018-12-26T18:34:07.161Z,12.43
2018-12-26T18:37:09.124Z,12.27
2018-12-26T18:40:11.245Z,13.07
2018-12-26T18:43:13.150Z,12.57
2018-12-26T18:46:15.160Z,13.23
2018-12-26T18:49:17.078Z,11.67
2018-12-26T18:52:19.005Z,13.47
2018-12-26T18:55:21.173Z,12.03
2018-12-26T18:58:23.150Z,11.90
2018-12-26T19:01:30.565Z,12.97
2018-12-26T19:04:29.076Z,12.93
2018-12-26T19:07:31.179Z,11.90
2018-12-26T19:10:33.130Z,14.30
2018-12-26T19:13:35.280Z,11.47
2018-12-26T19:16:37.289Z,11.93
2018-12-26T19:19:39.454Z,12.60
2018-12-26T19:22:41.437Z,12.33
2018-12-26T19:25:43.376Z,11.27
2018-12-26T19:28:45.354Z,11.00
2018-12-26T19:31:47.438Z,11.70
2018-12-26T19:34:49.415Z,11.83
2018-12-26T19:37:51.366Z,11.30
2018-12-26T19:40:53.413Z,11.83
2018-12-26T19:43:56.417Z,11.73
2018-12-26T19:46:58.391Z,12.67
2018-12-26T19:50:04.918Z,12.57
2018-12-26T19:53:04.226Z,18.37
2018-12-26T19:56:06.634Z,13.47
2018-12-26T19:59:08.717Z,12.73
2018-12-26T20:02:10.765Z,11.10
2018-12-26T20:05:13.094Z,11.90
2018-12-26T20:08:15.045Z,14.80
2018-12-26T20:11:17.069Z,13.47
2018-12-26T20:14:19.095Z,11.97
2018-12-26T20:17:21.141Z,12.23
2018-12-26T20:20:23.235Z,14.37
2018-12-26T20:23:27.099Z,11.63
2018-12-26T20:26:29.144Z,11.83
2018-12-26T20:29:31.185Z,12.87
2018-12-26T20:32:34.935Z,11.97
2018-12-26T20:35:36.864Z,11.70
2018-12-26T20:38:38.798Z,13.63
2018-12-26T20:41:40.977Z,12.00
2018-12-26T20:44:43.053Z,12.77
2018-12-26T20:47:45.919Z,13.20
2018-12-26T20:50:47.862Z,12.70
2018-12-26T20:53:50.373Z,12.30
2018-12-26T20:56:53.050Z,12.03
2018-12-26T20:59:55.069Z,12.63
2018-12-26T21:02:57.053Z,13.67
2018-12-26T21:06:00.184Z,11.80
2018-12-26T21:09:02.340Z,11.30
2018-12-26T21:12:05.502Z,10.67
2018-12-26T21:15:07.656Z,10.17
2018-12-26T21:18:09.645Z,11.80
2018-12-26T21:21:11.663Z,10.90
2018-12-26T21:24:16.487Z,9.73
2018-12-26T21:27:20.218Z,11.57
2018-12-26T21:30:22.143Z,10.33
2018-12-26T21:33:24.324Z,10.23
2018-12-26T21:36:26.753Z,10.87
2018-12-26T21:39:28.803Z,10.53
2018-12-26T21:42:30.908Z,10.93
2018-12-26T21:45:32.938Z,12.37
2018-12-26T21:48:34.871Z,11.07
2018-12-26T21:51:36.862Z,11.50
2018-12-26T21:54:38.853Z,11.67
2018-12-26T21:57:40.989Z,11.57
2018-12-26T22:00:43.087Z,11.90
2018-12-26T22:03:45.051Z,12.50
2018-12-26T22:06:47.098Z,12.77
2018-12-26T22:09:49.043Z,11.43
2018-12-26T22:12:51.006Z,12.23
2018-12-26T22:15:52.975Z,11.50
2018-12-26T22:18:55.242Z,12.67
2018-12-26T22:21:57.727Z,13.63
2018-12-26T22:24:59.681Z,14.67
2018-12-26T22:28:02.683Z,14.00
2018-12-26T22:31:04.610Z,13.40
2018-12-26T22:34:06.963Z,13.53
2018-12-26T22:37:08.953Z,13.57
2018-12-26T22:40:10.988Z,16.23
2018-12-26T22:43:13.020Z,15.97
2018-12-26T22:46:14.967Z,14.53
2018-12-26T22:49:16.994Z,13.80
2018-12-26T22:52:18.873Z,14.90
2018-12-26T22:55:20.881Z,15.00
2018-12-26T22:58:22.947Z,13.60
2018-12-26T23:01:25.061Z,15.83
2018-12-26T23:04:26.974Z,16.00
2018-12-26T23:07:28.933Z,15.23
2018-12-26T23:10:30.943Z,15.10
2018-12-26T23:13:33.066Z,16.20
2018-12-26T23:16:35.069Z,16.17
2018-12-26T23:19:37.112Z,16.63
2018-12-26T23:22:39.043Z,16.97
2018-12-26T23:25:41.008Z,17.50
2018-12-26T23:28:42.959Z,17.63
2018-12-26T23:31:44.993Z,18.83
2018-12-26T23:34:47.080Z,17.90
2018-12-26T23:37:49.011Z,17.13
2018-12-26T23:40:50.977Z,17.43
2018-12-26T23:43:52.873Z,17.37
2018-12-26T23:46:54.813Z,18.13
2018-12-26T23:49:56.925Z,16.47
2018-12-26T23:52:58.978Z,16.67
2018-12-26T23:56:00.876Z,16.50
2018-12-26T23:59:03.060Z,16.27
